Main page
METAR-TAF:

METAR-TAF

Airports :

Tri-Township Airport

Savanna, Illinois, United States

latitude: 42-02-45N, longitude: 090-06-28W, elevation: 617 ft

Current weather observation

The report was made 9 minutes ago, at 19:38 UTC
Wind 13 mph from the South/Southeast with gusts up to 17 mph
Temperature 46°F
Humidity 36%
Pressure 30.06 in. Hg
Visibility: 10 miles
Overcast at a height of 4400 ft

METAR: KSFY 011938Z AUTO 15011G15KT 10SM OVC044 08/M06 A3006 RMK AO2

Time: 13:47 (19:47 UTC)


TAF: missing

Weather observations and forecasts of more than 4000 airports (METAR and TAF reports).

The available stations are represented by yellow and red dots on the map.

Hover mouse over dot to see the name of the station.

Then click to see weather observations and forecasts.

To change the map : click on the green buttons with a black cross to zoom in, on the green button with a dash to zoom out, or on the green arrows for adjacent maps.


METAR-TAF: